NWA6499 SKBO-MROC
Flight info
| Callsign | NWA6499 |
|---|---|
| Flight time | 1h 35m |
| Altitude | 36000 |
| Route | VASIL4U VASIL UL423 ISEBA CUARE3I |
| Aircraft | B742/H-SDFHIRWXY/L |
Departure
| Time | 2026-05-08 20:58 |
|---|---|
| Airport | El Dorado International Airport (SKBO) |
Arrival
| Time | 2026-05-08 22:34 |
|---|---|
| Airport | Juan Santamaría International Airport (MROC) |
| Time | Latitude | Longitude | Altitude | Speed | Heading |
|---|---|---|---|---|---|
| 2026-05-08 20:33 | 4.69846 | -74.13921 | 8375 ft | 0 kts | 206° |
| 2026-05-08 20:46 | 4.69856 | -74.13915 | 8375 ft | 2 kts | 216° |
| 2026-05-08 20:46 | 4.69867 | -74.13905 | 8375 ft | 2 kts | 232° |
| 2026-05-08 20:47 | 4.69874 | -74.13892 | 8375 ft | 2 kts | 247° |
| 2026-05-08 20:47 | 4.69879 | -74.13878 | 8375 ft | 2 kts | 261° |
| 2026-05-08 20:47 | 4.69879 | -74.13863 | 8375 ft | 2 kts | 275° |
| 2026-05-08 20:47 | 4.69876 | -74.13848 | 8375 ft | 2 kts | 289° |
| 2026-05-08 20:48 | 4.69870 | -74.13834 | 8375 ft | 2 kts | 304° |
| 2026-05-08 20:48 | 4.69861 | -74.13823 | 8375 ft | 2 kts | 310° |
| 2026-05-08 20:48 | 4.69851 | -74.13811 | 8375 ft | 2 kts | 308° |
| 2026-05-08 20:48 | 4.69842 | -74.13799 | 8375 ft | 1 kts | 307° |
| 2026-05-08 20:49 | 4.69841 | -74.13798 | 8375 ft | 0 kts | 308° |
| 2026-05-08 20:51 | 4.69848 | -74.13807 | 8375 ft | 3 kts | 308° |
| 2026-05-08 20:51 | 4.69860 | -74.13822 | 8375 ft | 5 kts | 308° |
| 2026-05-08 20:51 | 4.69890 | -74.13861 | 8375 ft | 8 kts | 308° |
| 2026-05-08 20:51 | 4.69934 | -74.13921 | 8375 ft | 12 kts | 306° |
| 2026-05-08 20:52 | 4.69990 | -74.13997 | 8375 ft | 14 kts | 309° |
| 2026-05-08 20:52 | 4.70078 | -74.14005 | 8375 ft | 14 kts | 29° |
| 2026-05-08 20:52 | 4.70166 | -74.13990 | 8375 ft | 13 kts | 324° |
| 2026-05-08 20:52 | 4.70224 | -74.14066 | 8375 ft | 13 kts | 307° |
| 2026-05-08 20:53 | 4.70284 | -74.14145 | 8375 ft | 14 kts | 308° |
| 2026-05-08 20:53 | 4.70348 | -74.14228 | 8375 ft | 15 kts | 307° |
| 2026-05-08 20:53 | 4.70413 | -74.14314 | 8374 ft | 15 kts | 308° |
| 2026-05-08 20:53 | 4.70481 | -74.14405 | 8374 ft | 16 kts | 306° |
| 2026-05-08 20:54 | 4.70551 | -74.14501 | 8374 ft | 17 kts | 306° |
| 2026-05-08 20:54 | 4.70626 | -74.14592 | 8374 ft | 17 kts | 310° |
| 2026-05-08 20:54 | 4.70699 | -74.14688 | 8374 ft | 17 kts | 305° |
| 2026-05-08 20:54 | 4.70769 | -74.14791 | 8373 ft | 18 kts | 304° |
| 2026-05-08 20:55 | 4.70847 | -74.14895 | 8373 ft | 18 kts | 310° |
| 2026-05-08 20:55 | 4.70929 | -74.14996 | 8373 ft | 18 kts | 309° |
| 2026-05-08 20:55 | 4.71010 | -74.15099 | 8372 ft | 19 kts | 307° |
| 2026-05-08 20:55 | 4.71095 | -74.15196 | 8372 ft | 17 kts | 333° |
| 2026-05-08 20:56 | 4.71206 | -74.15221 | 8372 ft | 15 kts | 352° |
| 2026-05-08 20:56 | 4.71291 | -74.15218 | 8372 ft | 10 kts | 28° |
| 2026-05-08 20:56 | 4.71316 | -74.15170 | 8372 ft | 6 kts | 108° |
| 2026-05-08 20:56 | 4.71290 | -74.15138 | 8372 ft | 4 kts | 130° |
| 2026-05-08 20:57 | 4.71268 | -74.15111 | 8372 ft | 7 kts | 129° |
| 2026-05-08 20:57 | 4.71177 | -74.14990 | 8373 ft | 46 kts | 127° |
| 2026-05-08 20:57 | 4.70868 | -74.14586 | 8374 ft | 99 kts | 127° |
| 2026-05-08 20:57 | 4.70343 | -74.13893 | 8376 ft | 147 kts | 127° |
| 2026-05-08 20:58 | 4.69644 | -74.12969 | 8412 ft | 181 kts | 126° |
| 2026-05-08 20:58 | 4.68872 | -74.11941 | 8687 ft | 189 kts | 123° |
| 2026-05-08 20:58 | 4.68079 | -74.10854 | 9081 ft | 194 kts | 125° |
| 2026-05-08 20:58 | 4.67115 | -74.09918 | 9493 ft | 198 kts | 156° |
| 2026-05-08 20:59 | 4.65742 | -74.09753 | 9810 ft | 207 kts | 195° |
| 2026-05-08 20:59 | 4.64537 | -74.10560 | 10185 ft | 214 kts | 236° |
| 2026-05-08 20:59 | 4.64084 | -74.11971 | 10597 ft | 218 kts | 267° |
| 2026-05-08 20:59 | 4.63887 | -74.13521 | 10834 ft | 234 kts | 255° |
| 2026-05-08 21:00 | 4.63432 | -74.15157 | 10998 ft | 253 kts | 253° |
| 2026-05-08 21:00 | 4.62877 | -74.16897 | 11213 ft | 271 kts | 251° |
| 2026-05-08 21:00 | 4.62265 | -74.18721 | 11474 ft | 279 kts | 251° |
| 2026-05-08 21:00 | 4.61632 | -74.20622 | 11709 ft | 299 kts | 254° |
| 2026-05-08 21:01 | 4.61148 | -74.22739 | 12004 ft | 317 kts | 259° |
| 2026-05-08 21:01 | 4.60744 | -74.24892 | 12802 ft | 316 kts | 260° |
| 2026-05-08 21:01 | 4.60349 | -74.27043 | 13503 ft | 317 kts | 262° |
| 2026-05-08 21:01 | 4.60146 | -74.29250 | 14196 ft | 318 kts | 268° |
| 2026-05-08 21:02 | 4.60047 | -74.31467 | 14803 ft | 322 kts | 268° |
| 2026-05-08 21:02 | 4.59947 | -74.33702 | 15391 ft | 326 kts | 268° |
| 2026-05-08 21:02 | 4.59834 | -74.35953 | 16006 ft | 328 kts | 267° |
| 2026-05-08 21:02 | 4.59714 | -74.38226 | 16633 ft | 328 kts | 267° |
| 2026-05-08 21:03 | 4.59617 | -74.40523 | 17148 ft | 333 kts | 272° |
| 2026-05-08 21:03 | 4.59871 | -74.42850 | 17687 ft | 336 kts | 279° |
| 2026-05-08 21:03 | 4.60265 | -74.45148 | 18241 ft | 338 kts | 279° |
| 2026-05-08 21:03 | 4.60667 | -74.47463 | 18759 ft | 341 kts | 279° |
| 2026-05-08 21:04 | 4.61066 | -74.49848 | 19088 ft | 352 kts | 279° |
| 2026-05-08 21:04 | 4.61467 | -74.52307 | 19273 ft | 366 kts | 278° |
| 2026-05-08 21:04 | 4.61879 | -74.54859 | 19471 ft | 380 kts | 278° |
| 2026-05-08 21:04 | 4.62313 | -74.57546 | 19681 ft | 394 kts | 278° |
| 2026-05-08 21:05 | 4.62752 | -74.60274 | 19888 ft | 407 kts | 278° |
| 2026-05-08 21:05 | 4.63212 | -74.63133 | 20136 ft | 418 kts | 278° |
| 2026-05-08 21:05 | 4.63676 | -74.66011 | 20408 ft | 428 kts | 278° |
| 2026-05-08 21:05 | 4.64158 | -74.69010 | 20824 ft | 433 kts | 278° |
| 2026-05-08 21:06 | 4.64633 | -74.71967 | 21402 ft | 434 kts | 278° |
| 2026-05-08 21:06 | 4.65116 | -74.74976 | 21828 ft | 439 kts | 278° |
| 2026-05-08 21:06 | 4.65598 | -74.77980 | 22336 ft | 440 kts | 278° |
| 2026-05-08 21:06 | 4.66125 | -74.81033 | 22820 ft | 443 kts | 282° |
| 2026-05-08 21:07 | 4.67637 | -74.84836 | 23326 ft | 451 kts | 300° |
| 2026-05-08 21:07 | 4.68863 | -74.86593 | 23641 ft | 454 kts | 309° |
| 2026-05-08 21:07 | 4.71120 | -74.88795 | 24094 ft | 457 kts | 321° |
| 2026-05-08 21:07 | 4.73713 | -74.90646 | 24507 ft | 460 kts | 326° |
| 2026-05-08 21:08 | 4.76399 | -74.92379 | 24978 ft | 462 kts | 327° |
| 2026-05-08 21:08 | 4.79155 | -74.94141 | 25393 ft | 466 kts | 327° |
| 2026-05-08 21:08 | 4.81876 | -74.95909 | 25834 ft | 469 kts | 326° |
| 2026-05-08 21:08 | 4.84601 | -74.97711 | 26251 ft | 472 kts | 326° |
| 2026-05-08 21:09 | 4.87360 | -74.99559 | 26649 ft | 475 kts | 326° |
| 2026-05-08 21:09 | 4.90124 | -75.01425 | 27068 ft | 478 kts | 326° |
| 2026-05-08 21:09 | 4.92862 | -75.03281 | 27423 ft | 482 kts | 326° |
| 2026-05-08 21:09 | 4.95665 | -75.05185 | 27826 ft | 484 kts | 326° |
| 2026-05-08 21:10 | 4.98451 | -75.07079 | 28177 ft | 487 kts | 326° |
| 2026-05-08 21:10 | 5.01274 | -75.09000 | 28528 ft | 490 kts | 326° |
| 2026-05-08 21:10 | 5.04121 | -75.10936 | 28973 ft | 491 kts | 326° |
| 2026-05-08 21:10 | 5.06936 | -75.12852 | 29353 ft | 492 kts | 326° |
| 2026-05-08 21:11 | 5.09787 | -75.14790 | 29819 ft | 492 kts | 326° |
| 2026-05-08 21:11 | 5.12605 | -75.16708 | 30181 ft | 493 kts | 326° |
| 2026-05-08 21:11 | 5.15417 | -75.18750 | 30451 ft | 496 kts | 319° |
| 2026-05-08 21:11 | 5.17878 | -75.21152 | 30836 ft | 496 kts | 313° |
| 2026-05-08 21:12 | 5.20177 | -75.23701 | 31222 ft | 496 kts | 310° |
| 2026-05-08 21:12 | 5.22442 | -75.26321 | 31793 ft | 492 kts | 310° |
| 2026-05-08 21:12 | 5.24683 | -75.28925 | 32505 ft | 485 kts | 310° |
| 2026-05-08 21:12 | 5.26891 | -75.31473 | 33193 ft | 481 kts | 310° |
| 2026-05-08 21:13 | 5.29089 | -75.33989 | 33794 ft | 479 kts | 310° |
| 2026-05-08 21:13 | 5.31280 | -75.36481 | 34497 ft | 475 kts | 311° |
| 2026-05-08 21:13 | 5.33458 | -75.38953 | 35183 ft | 471 kts | 311° |
| 2026-05-08 21:13 | 5.35624 | -75.41406 | 35828 ft | 468 kts | 311° |
| 2026-05-08 21:14 | 5.37807 | -75.43876 | 36293 ft | 468 kts | 311° |
| 2026-05-08 21:14 | 5.39971 | -75.46324 | 36743 ft | 468 kts | 311° |
| 2026-05-08 21:14 | 5.42136 | -75.48773 | 37084 ft | 470 kts | 311° |
| 2026-05-08 21:15 | 5.46533 | -75.53749 | 37163 ft | 483 kts | 310° |
| 2026-05-08 21:15 | 5.51043 | -75.58853 | 37183 ft | 491 kts | 310° |
| 2026-05-08 21:16 | 5.55532 | -75.63934 | 37218 ft | 487 kts | 310° |
| 2026-05-08 21:16 | 5.60048 | -75.69055 | 37232 ft | 488 kts | 310° |
| 2026-05-08 21:17 | 5.64550 | -75.74162 | 37243 ft | 485 kts | 310° |
| 2026-05-08 21:17 | 5.69038 | -75.79251 | 37245 ft | 489 kts | 310° |
| 2026-05-08 21:18 | 5.72811 | -75.84869 | 37231 ft | 489 kts | 296° |
| 2026-05-08 21:18 | 5.75729 | -75.91055 | 37204 ft | 489 kts | 294° |
| 2026-05-08 21:19 | 5.78567 | -75.97232 | 37179 ft | 489 kts | 294° |
| 2026-05-08 21:19 | 5.81446 | -76.03384 | 37166 ft | 490 kts | 294° |
| 2026-05-08 21:20 | 5.84361 | -76.09558 | 37169 ft | 489 kts | 295° |
| 2026-05-08 21:20 | 5.87282 | -76.15732 | 37189 ft | 489 kts | 295° |
| 2026-05-08 21:21 | 5.90210 | -76.21925 | 37214 ft | 490 kts | 295° |
| 2026-05-08 21:21 | 5.93129 | -76.28098 | 37255 ft | 490 kts | 295° |
| 2026-05-08 21:22 | 5.96040 | -76.34257 | 37183 ft | 491 kts | 295° |
| 2026-05-08 21:22 | 5.98962 | -76.40444 | 37116 ft | 490 kts | 295° |
| 2026-05-08 21:23 | 6.01875 | -76.46613 | 37010 ft | 491 kts | 295° |
| 2026-05-08 21:23 | 6.04794 | -76.52796 | 36907 ft | 491 kts | 295° |
| 2026-05-08 21:24 | 6.07733 | -76.59024 | 36896 ft | 491 kts | 295° |
| 2026-05-08 21:24 | 6.10656 | -76.65221 | 36864 ft | 491 kts | 295° |
| 2026-05-08 21:25 | 6.13562 | -76.71405 | 36845 ft | 491 kts | 294° |
| 2026-05-08 21:25 | 6.16480 | -76.77609 | 36814 ft | 493 kts | 294° |
| 2026-05-08 21:26 | 6.19400 | -76.83812 | 36811 ft | 493 kts | 294° |
| 2026-05-08 21:26 | 6.22331 | -76.90035 | 36809 ft | 492 kts | 295° |
| 2026-05-08 21:27 | 6.25259 | -76.96251 | 36816 ft | 491 kts | 295° |
| 2026-05-08 21:27 | 6.28169 | -77.02433 | 36819 ft | 493 kts | 295° |
| 2026-05-08 21:28 | 6.31096 | -77.08652 | 36818 ft | 491 kts | 295° |
| 2026-05-08 21:28 | 6.34024 | -77.14877 | 36826 ft | 492 kts | 295° |
| 2026-05-08 21:29 | 6.36938 | -77.21075 | 36840 ft | 492 kts | 295° |
| 2026-05-08 21:29 | 6.39858 | -77.27286 | 36840 ft | 491 kts | 294° |
| 2026-05-08 21:30 | 6.42772 | -77.33488 | 36831 ft | 493 kts | 295° |
| 2026-05-08 21:30 | 6.46179 | -77.40742 | 36807 ft | 491 kts | 294° |
| 2026-05-08 21:31 | 6.48603 | -77.45903 | 36789 ft | 493 kts | 294° |
| 2026-05-08 21:31 | 6.51517 | -77.52113 | 36771 ft | 492 kts | 294° |
| 2026-05-08 21:32 | 6.54451 | -77.58367 | 36775 ft | 492 kts | 294° |
| 2026-05-08 21:32 | 6.57368 | -77.64584 | 36775 ft | 494 kts | 294° |
| 2026-05-08 21:33 | 6.60294 | -77.70840 | 36776 ft | 493 kts | 294° |
| 2026-05-08 21:33 | 6.63215 | -77.77088 | 36773 ft | 498 kts | 294° |
| 2026-05-08 21:34 | 6.66178 | -77.83419 | 36772 ft | 501 kts | 294° |
| 2026-05-08 21:34 | 6.69134 | -77.89731 | 36774 ft | 498 kts | 294° |
| 2026-05-08 21:35 | 6.72065 | -77.95988 | 36774 ft | 493 kts | 294° |
| 2026-05-08 21:35 | 6.74980 | -78.02222 | 36775 ft | 496 kts | 294° |
| 2026-05-08 21:36 | 6.77911 | -78.08490 | 36773 ft | 496 kts | 294° |
| 2026-05-08 21:36 | 6.80854 | -78.14784 | 36775 ft | 499 kts | 294° |
| 2026-05-08 21:37 | 6.83822 | -78.21114 | 36771 ft | 499 kts | 295° |
| 2026-05-08 21:37 | 6.87230 | -78.27185 | 36777 ft | 500 kts | 300° |
| 2026-05-08 21:38 | 6.90822 | -78.33147 | 36780 ft | 502 kts | 300° |
| 2026-05-08 21:38 | 6.94419 | -78.39179 | 36787 ft | 500 kts | 299° |
| 2026-05-08 21:39 | 6.97965 | -78.45187 | 36792 ft | 501 kts | 299° |
| 2026-05-08 21:39 | 7.01508 | -78.51205 | 36786 ft | 501 kts | 299° |
| 2026-05-08 21:40 | 7.05056 | -78.57240 | 36782 ft | 500 kts | 300° |
| 2026-05-08 21:40 | 7.08589 | -78.63248 | 36777 ft | 501 kts | 299° |
| 2026-05-08 21:41 | 7.13889 | -78.72283 | 36771 ft | 501 kts | 299° |
| 2026-05-08 21:41 | 7.17433 | -78.78326 | 36771 ft | 501 kts | 299° |
| 2026-05-08 21:42 | 7.20985 | -78.84373 | 36772 ft | 500 kts | 299° |
| 2026-05-08 21:42 | 7.24521 | -78.90394 | 36774 ft | 502 kts | 300° |
| 2026-05-08 21:43 | 7.28061 | -78.96422 | 36770 ft | 500 kts | 300° |
| 2026-05-08 21:43 | 7.31602 | -79.02454 | 36769 ft | 500 kts | 300° |
| 2026-05-08 21:44 | 7.35147 | -79.08497 | 36771 ft | 502 kts | 300° |
| 2026-05-08 21:44 | 7.38701 | -79.14556 | 36768 ft | 501 kts | 300° |
| 2026-05-08 21:45 | 7.42248 | -79.20606 | 36773 ft | 503 kts | 300° |
| 2026-05-08 21:45 | 7.45805 | -79.26675 | 36770 ft | 502 kts | 300° |
| 2026-05-08 21:46 | 7.49353 | -79.32732 | 36772 ft | 501 kts | 300° |
| 2026-05-08 21:46 | 7.52881 | -79.38756 | 36768 ft | 500 kts | 300° |
| 2026-05-08 21:47 | 7.56390 | -79.44750 | 36771 ft | 495 kts | 300° |
| 2026-05-08 21:47 | 7.59872 | -79.50702 | 36772 ft | 494 kts | 300° |
| 2026-05-08 21:48 | 7.63371 | -79.56683 | 36772 ft | 496 kts | 300° |
| 2026-05-08 21:48 | 7.66868 | -79.62665 | 36773 ft | 498 kts | 300° |
| 2026-05-08 21:49 | 7.70385 | -79.68690 | 36773 ft | 500 kts | 300° |
| 2026-05-08 21:49 | 7.73898 | -79.74721 | 36773 ft | 502 kts | 300° |
| 2026-05-08 21:50 | 7.77453 | -79.80817 | 36774 ft | 503 kts | 300° |
| 2026-05-08 21:50 | 7.81001 | -79.86895 | 36771 ft | 505 kts | 300° |
| 2026-05-08 21:51 | 7.84563 | -79.93000 | 36765 ft | 506 kts | 300° |
| 2026-05-08 21:51 | 7.88123 | -79.99104 | 36757 ft | 506 kts | 300° |
| 2026-05-08 21:52 | 7.91692 | -80.05225 | 36753 ft | 505 kts | 300° |
| 2026-05-08 21:52 | 7.95252 | -80.11334 | 36755 ft | 505 kts | 300° |
| 2026-05-08 21:53 | 7.98811 | -80.17445 | 36752 ft | 504 kts | 300° |
| 2026-05-08 21:53 | 8.02340 | -80.23506 | 36756 ft | 502 kts | 300° |
| 2026-05-08 21:54 | 8.05870 | -80.29572 | 36751 ft | 503 kts | 300° |
| 2026-05-08 21:54 | 8.09416 | -80.35667 | 36758 ft | 500 kts | 300° |
| 2026-05-08 21:55 | 8.12914 | -80.41686 | 36762 ft | 498 kts | 300° |
| 2026-05-08 21:56 | 8.18183 | -80.50757 | 36777 ft | 500 kts | 300° |
| 2026-05-08 21:56 | 8.21684 | -80.56784 | 36782 ft | 500 kts | 300° |
| 2026-05-08 21:57 | 8.25196 | -80.62830 | 36783 ft | 500 kts | 300° |
| 2026-05-08 21:57 | 8.28708 | -80.68892 | 36798 ft | 500 kts | 300° |
| 2026-05-08 21:58 | 8.32207 | -80.74942 | 36817 ft | 500 kts | 300° |
| 2026-05-08 21:58 | 8.35736 | -80.81036 | 36843 ft | 502 kts | 300° |
| 2026-05-08 21:59 | 8.39264 | -80.87124 | 36866 ft | 503 kts | 300° |
| 2026-05-08 21:59 | 8.42777 | -80.93188 | 36898 ft | 501 kts | 300° |
| 2026-05-08 22:00 | 8.46307 | -80.99282 | 36924 ft | 502 kts | 300° |
| 2026-05-08 22:00 | 8.49833 | -81.05374 | 36954 ft | 502 kts | 300° |
| 2026-05-08 22:01 | 8.53330 | -81.11419 | 36955 ft | 502 kts | 300° |
| 2026-05-08 22:01 | 8.56878 | -81.17554 | 36946 ft | 503 kts | 300° |
| 2026-05-08 22:02 | 8.60394 | -81.23637 | 36923 ft | 503 kts | 300° |
| 2026-05-08 22:02 | 8.63918 | -81.29735 | 36898 ft | 502 kts | 300° |
| 2026-05-08 22:03 | 8.67434 | -81.35822 | 36877 ft | 503 kts | 300° |
| 2026-05-08 22:03 | 8.70970 | -81.41950 | 36862 ft | 503 kts | 300° |
| 2026-05-08 22:04 | 8.74490 | -81.48050 | 36846 ft | 504 kts | 300° |
| 2026-05-08 22:04 | 8.78038 | -81.54202 | 36831 ft | 504 kts | 300° |
| 2026-05-08 22:05 | 8.81550 | -81.60294 | 36834 ft | 505 kts | 301° |
| 2026-05-08 22:05 | 8.85087 | -81.66434 | 36827 ft | 505 kts | 300° |
| 2026-05-08 22:06 | 8.88593 | -81.72542 | 36829 ft | 503 kts | 300° |
| 2026-05-08 22:06 | 8.92133 | -81.78705 | 36829 ft | 505 kts | 301° |
| 2026-05-08 22:07 | 8.95644 | -81.84810 | 36825 ft | 505 kts | 301° |
| 2026-05-08 22:07 | 8.99184 | -81.90966 | 36820 ft | 507 kts | 301° |
| 2026-05-08 22:08 | 9.02705 | -81.97092 | 36817 ft | 506 kts | 301° |
| 2026-05-08 22:08 | 9.06252 | -82.03265 | 36826 ft | 505 kts | 301° |
| 2026-05-08 22:09 | 9.09758 | -82.09371 | 36839 ft | 504 kts | 301° |
| 2026-05-08 22:09 | 9.13293 | -82.15533 | 36839 ft | 505 kts | 301° |
| 2026-05-08 22:10 | 9.16829 | -82.21701 | 36843 ft | 506 kts | 301° |
| 2026-05-08 22:10 | 9.20339 | -82.27824 | 36845 ft | 505 kts | 301° |
| 2026-05-08 22:11 | 9.23877 | -82.33997 | 36858 ft | 506 kts | 301° |
| 2026-05-08 22:11 | 9.27405 | -82.40156 | 36873 ft | 505 kts | 301° |
| 2026-05-08 22:12 | 9.30929 | -82.46309 | 36877 ft | 505 kts | 301° |
| 2026-05-08 22:12 | 9.34448 | -82.52458 | 36888 ft | 506 kts | 301° |
| 2026-05-08 22:13 | 9.37950 | -82.58580 | 36913 ft | 506 kts | 301° |
| 2026-05-08 22:13 | 9.41475 | -82.64748 | 36945 ft | 505 kts | 301° |
| 2026-05-08 22:14 | 9.44986 | -82.70909 | 36962 ft | 506 kts | 301° |
| 2026-05-08 22:14 | 9.48498 | -82.77078 | 36979 ft | 505 kts | 301° |
| 2026-05-08 22:15 | 9.52007 | -82.83230 | 36947 ft | 504 kts | 301° |
| 2026-05-08 22:15 | 9.55081 | -82.89599 | 36916 ft | 507 kts | 290° |
| 2026-05-08 22:16 | 9.57253 | -82.96369 | 36884 ft | 508 kts | 288° |
| 2026-05-08 22:16 | 9.59334 | -83.03201 | 36880 ft | 505 kts | 288° |
| 2026-05-08 22:17 | 9.61466 | -83.10031 | 36948 ft | 508 kts | 288° |
| 2026-05-08 22:17 | 9.63621 | -83.16845 | 36233 ft | 518 kts | 288° |
| 2026-05-08 22:17 | 9.64719 | -83.20308 | 35236 ft | 523 kts | 289° |
| 2026-05-08 22:18 | 9.65824 | -83.23794 | 34243 ft | 523 kts | 289° |
| 2026-05-08 22:18 | 9.66933 | -83.27296 | 33251 ft | 522 kts | 289° |
| 2026-05-08 22:18 | 9.68041 | -83.30797 | 32303 ft | 521 kts | 289° |
| 2026-05-08 22:18 | 9.69145 | -83.34285 | 31400 ft | 520 kts | 289° |
| 2026-05-08 22:19 | 9.70239 | -83.37742 | 30508 ft | 519 kts | 289° |
| 2026-05-08 22:19 | 9.71338 | -83.41217 | 29614 ft | 518 kts | 289° |
| 2026-05-08 22:19 | 9.72431 | -83.44675 | 28727 ft | 517 kts | 289° |
| 2026-05-08 22:19 | 9.73531 | -83.48156 | 27859 ft | 515 kts | 289° |
| 2026-05-08 22:20 | 9.74461 | -83.51608 | 27009 ft | 514 kts | 282° |
| 2026-05-08 22:20 | 9.74987 | -83.55185 | 26156 ft | 513 kts | 277° |
| 2026-05-08 22:20 | 9.75270 | -83.58754 | 25357 ft | 511 kts | 274° |
| 2026-05-08 22:20 | 9.75449 | -83.62341 | 24617 ft | 507 kts | 273° |
| 2026-05-08 22:21 | 9.75594 | -83.65873 | 23884 ft | 503 kts | 273° |
| 2026-05-08 22:21 | 9.75735 | -83.69416 | 23152 ft | 500 kts | 273° |
| 2026-05-08 22:21 | 9.75882 | -83.72921 | 22434 ft | 496 kts | 273° |
| 2026-05-08 22:21 | 9.76036 | -83.76363 | 21752 ft | 493 kts | 273° |
| 2026-05-08 22:22 | 9.76199 | -83.79836 | 21065 ft | 490 kts | 273° |
| 2026-05-08 22:22 | 9.76364 | -83.83237 | 20397 ft | 487 kts | 274° |
| 2026-05-08 22:22 | 9.76532 | -83.86667 | 19708 ft | 483 kts | 274° |
| 2026-05-08 22:22 | 9.76753 | -83.91150 | 18799 ft | 479 kts | 274° |
| 2026-05-08 22:23 | 9.76862 | -83.93381 | 18367 ft | 476 kts | 274° |
| 2026-05-08 22:23 | 9.77026 | -83.96716 | 17745 ft | 470 kts | 274° |
| 2026-05-08 22:23 | 9.77188 | -84.00021 | 17131 ft | 465 kts | 274° |
| 2026-05-08 22:23 | 9.77346 | -84.03247 | 16501 ft | 460 kts | 274° |
| 2026-05-08 22:24 | 9.77501 | -84.06435 | 15960 ft | 452 kts | 274° |
| 2026-05-08 22:24 | 9.77655 | -84.09610 | 15466 ft | 443 kts | 274° |
| 2026-05-08 22:24 | 9.77803 | -84.12661 | 15044 ft | 433 kts | 274° |
| 2026-05-08 22:24 | 9.77949 | -84.15688 | 14775 ft | 421 kts | 274° |
| 2026-05-08 22:25 | 9.78089 | -84.18598 | 14467 ft | 410 kts | 274° |
| 2026-05-08 22:25 | 9.78226 | -84.21439 | 14182 ft | 400 kts | 274° |
| 2026-05-08 22:25 | 9.78360 | -84.24218 | 13928 ft | 390 kts | 274° |
| 2026-05-08 22:25 | 9.78491 | -84.26947 | 13615 ft | 381 kts | 274° |
| 2026-05-08 22:26 | 9.78617 | -84.29589 | 13297 ft | 371 kts | 275° |
| 2026-05-08 22:26 | 9.78739 | -84.32153 | 12901 ft | 359 kts | 274° |
| 2026-05-08 22:26 | 9.78856 | -84.34609 | 12419 ft | 347 kts | 274° |
| 2026-05-08 22:26 | 9.78971 | -84.37027 | 11865 ft | 338 kts | 274° |
| 2026-05-08 22:27 | 9.79094 | -84.39394 | 11224 ft | 332 kts | 277° |
| 2026-05-08 22:27 | 9.79624 | -84.41582 | 10802 ft | 316 kts | 296° |
| 2026-05-08 22:27 | 9.80764 | -84.43422 | 10347 ft | 303 kts | 316° |
| 2026-05-08 22:27 | 9.82359 | -84.44735 | 9832 ft | 293 kts | 331° |
| 2026-05-08 22:28 | 9.84146 | -84.45654 | 9324 ft | 287 kts | 341° |
| 2026-05-08 22:28 | 9.86031 | -84.46311 | 8808 ft | 279 kts | 349° |
| 2026-05-08 22:28 | 9.88478 | -84.46140 | 8170 ft | 263 kts | 29° |
| 2026-05-08 22:28 | 9.89468 | -84.45429 | 7841 ft | 257 kts | 49° |
| 2026-05-08 22:29 | 9.90483 | -84.43984 | 7312 ft | 254 kts | 62° |
| 2026-05-08 22:29 | 9.91249 | -84.42428 | 7042 ft | 241 kts | 65° |
| 2026-05-08 22:29 | 9.91911 | -84.40877 | 6568 ft | 237 kts | 68° |
| 2026-05-08 22:29 | 9.92675 | -84.38853 | 6115 ft | 226 kts | 69° |
| 2026-05-08 22:30 | 9.93028 | -84.37884 | 5927 ft | 214 kts | 69° |
| 2026-05-08 22:30 | 9.93528 | -84.36517 | 5716 ft | 199 kts | 69° |
| 2026-05-08 22:30 | 9.94168 | -84.34798 | 5359 ft | 193 kts | 69° |
| 2026-05-08 22:30 | 9.94482 | -84.33958 | 5196 ft | 189 kts | 68° |
| 2026-05-08 22:31 | 9.94939 | -84.32741 | 5009 ft | 180 kts | 69° |
| 2026-05-08 22:31 | 9.95379 | -84.31555 | 4719 ft | 178 kts | 70° |
| 2026-05-08 22:31 | 9.95801 | -84.30413 | 4509 ft | 167 kts | 70° |
| 2026-05-08 22:31 | 9.96198 | -84.29348 | 4369 ft | 155 kts | 69° |
| 2026-05-08 22:32 | 9.96574 | -84.28362 | 4187 ft | 146 kts | 70° |
| 2026-05-08 22:32 | 9.96949 | -84.27400 | 3928 ft | 148 kts | 68° |
| 2026-05-08 22:32 | 9.97318 | -84.26427 | 3754 ft | 146 kts | 70° |
| 2026-05-08 22:32 | 9.97675 | -84.25454 | 3607 ft | 147 kts | 70° |
| 2026-05-08 22:33 | 9.98041 | -84.24487 | 3424 ft | 148 kts | 70° |
| 2026-05-08 22:33 | 9.98403 | -84.23509 | 3254 ft | 148 kts | 68° |
| 2026-05-08 22:33 | 9.98772 | -84.22537 | 3062 ft | 147 kts | 69° |
| 2026-05-08 22:33 | 9.99245 | -84.21271 | 2994 ft | 128 kts | 69° |
| 2026-05-08 22:34 | 9.99433 | -84.20770 | 3013 ft | 98 kts | 69° |
| 2026-05-08 22:34 | 9.99608 | -84.20301 | 3041 ft | 41 kts | 70° |
| 2026-05-08 22:34 | 9.99661 | -84.20161 | 3046 ft | 11 kts | 59° |
| 2026-05-08 22:34 | 9.99693 | -84.20142 | 3048 ft | 2 kts | 355° |
| 2026-05-08 22:35 | 9.99699 | -84.20143 | 3049 ft | 2 kts | 354° |
| 2026-05-08 22:35 | 9.99743 | -84.20172 | 3050 ft | 13 kts | 292° |
| 2026-05-08 22:35 | 9.99717 | -84.20270 | 3047 ft | 15 kts | 247° |
| 2026-05-08 22:35 | 9.99667 | -84.20390 | 3043 ft | 10 kts | 251° |
| 2026-05-08 22:36 | 9.99656 | -84.20431 | 3041 ft | 6 kts | 278° |
| 2026-05-08 22:36 | 9.99667 | -84.20442 | 3042 ft | 0 kts | 342° |
| 2026-05-08 22:36 | 9.99668 | -84.20442 | 3042 ft | 0 kts | 342° |
| 2026-05-08 22:36 | 9.99687 | -84.20449 | 3042 ft | 5 kts | 342° |
| 2026-05-08 22:37 | 9.99698 | -84.20452 | 3043 ft | 0 kts | 341° |